createdAt,value
2023-09-18T00:01:22.108Z,100459.84
2023-09-18T00:03:49.498Z,100448.00
2023-09-18T00:06:16.787Z,100440.28
2023-09-18T00:08:44.014Z,100447.16
2023-09-18T00:11:12.662Z,100446.19
2023-09-18T00:13:39.991Z,100453.81
2023-09-18T00:16:07.254Z,100454.56
2023-09-18T00:18:34.871Z,100462.31
2023-09-18T00:21:02.220Z,100457.31
2023-09-18T00:23:29.544Z,100461.47
2023-09-18T00:25:56.786Z,100457.09
2023-09-18T00:28:23.989Z,100446.97
2023-09-18T00:30:51.565Z,100444.44
2023-09-18T00:33:20.766Z,100432.59
2023-09-18T00:35:52.901Z,100435.94
2023-09-18T00:38:20.792Z,100433.47
2023-09-18T00:40:48.485Z,100419.97
2023-09-18T00:43:15.796Z,100428.41
2023-09-18T00:45:46.609Z,100419.00
2023-09-18T00:48:17.443Z,100406.34
2023-09-18T00:50:46.795Z,100400.44
2023-09-18T00:53:19.685Z,100395.38
2023-09-18T00:55:47.740Z,100388.59
2023-09-18T00:58:15.042Z,100381.81
2023-09-18T01:00:42.385Z,100382.69
2023-09-18T01:03:11.033Z,100381.81
2023-09-18T01:05:38.431Z,100378.44
2023-09-18T01:08:06.310Z,100375.88
2023-09-18T01:10:58.690Z,100375.78
2023-09-18T01:13:38.084Z,100374.97
2023-09-18T01:16:28.427Z,100368.91
2023-09-18T01:18:55.793Z,100364.66
2023-09-18T01:21:23.505Z,100358.03
2023-09-18T01:23:50.775Z,100356.31
2023-09-18T01:26:18.198Z,100356.44
2023-09-18T01:28:45.503Z,100347.91
2023-09-18T01:31:12.772Z,100339.31
2023-09-18T01:33:40.695Z,100335.91
2023-09-18T01:36:09.736Z,100344.38
2023-09-18T01:38:38.619Z,100338.47
2023-09-18T01:41:05.892Z,100338.56
2023-09-18T01:43:33.220Z,100330.94
2023-09-18T01:46:00.475Z,100330.97
2023-09-18T01:48:27.680Z,100320.78
2023-09-18T01:50:54.911Z,100325.88
2023-09-18T01:53:22.173Z,100319.06
2023-09-18T01:55:49.388Z,100319.03
2023-09-18T01:58:16.922Z,100323.13
2023-09-18T02:00:44.718Z,100325.69
2023-09-18T02:03:22.115Z,100323.16
2023-09-18T02:05:59.949Z,100314.78
2023-09-18T02:08:27.520Z,100308.88
2023-09-18T02:10:54.781Z,100308.78
2023-09-18T02:13:22.183Z,100305.56
2023-09-18T02:15:49.359Z,100304.63
2023-09-18T02:18:17.098Z,100292.88
2023-09-18T02:20:48.476Z,100290.22
2023-09-18T02:23:17.134Z,100292.00
2023-09-18T02:25:44.528Z,100284.28
2023-09-18T02:28:11.804Z,100268.25
2023-09-18T02:30:38.987Z,100274.16
2023-09-18T02:33:06.367Z,100267.38
2023-09-18T02:35:33.682Z,100275.78
2023-09-18T02:38:03.312Z,100274.16
2023-09-18T02:40:30.534Z,100276.66
2023-09-18T02:42:57.713Z,100271.53
2023-09-18T02:45:24.920Z,100266.44
2023-09-18T02:47:52.242Z,100273.22
2023-09-18T02:50:19.518Z,100262.28
2023-09-18T02:52:46.697Z,100263.06
2023-09-18T02:55:14.568Z,100261.50
2023-09-18T02:57:41.882Z,100253.03
2023-09-18T03:00:10.513Z,100253.78
2023-09-18T03:02:37.819Z,100252.16
2023-09-18T03:05:05.894Z,100241.03
2023-09-18T03:07:33.193Z,100247.94
2023-09-18T03:10:00.461Z,100243.66
2023-09-18T03:12:27.748Z,100239.34
2023-09-18T03:14:55.044Z,100232.59
2023-09-18T03:17:22.406Z,100237.72
2023-09-18T03:19:50.373Z,100230.13
2023-09-18T03:22:17.773Z,100218.22
2023-09-18T03:24:44.988Z,100223.38
2023-09-18T03:27:12.182Z,100219.13
2023-09-18T03:29:39.351Z,100213.25
2023-09-18T03:32:06.845Z,100219.13
2023-09-18T03:34:34.385Z,100209.00
2023-09-18T03:37:01.674Z,100210.69
2023-09-18T03:39:29.146Z,100205.59
2023-09-18T03:41:56.342Z,100200.38
2023-09-18T03:44:24.031Z,100206.97
2023-09-18T03:46:51.269Z,100199.25
2023-09-18T03:49:18.491Z,100203.75
2023-09-18T03:51:45.756Z,100192.06
2023-09-18T03:54:13.085Z,100193.59
2023-09-18T03:56:40.351Z,100190.34
2023-09-18T03:59:07.576Z,100191.16
2023-09-18T04:01:34.790Z,100180.25
2023-09-18T04:04:05.549Z,100181.78
2023-09-18T04:06:47.237Z,100181.78
2023-09-18T04:09:16.348Z,100175.09
2023-09-18T04:11:43.619Z,100170.84
2023-09-18T04:14:10.892Z,100165.66
2023-09-18T04:16:40.946Z,100163.06
2023-09-18T04:19:09.373Z,100163.91
2023-09-18T04:21:36.962Z,100152.97
2023-09-18T04:24:04.641Z,100139.44
2023-09-18T04:26:32.223Z,100138.63
2023-09-18T04:29:02.959Z,100120.78
2023-09-18T04:31:30.285Z,100125.06
2023-09-18T04:33:57.618Z,100117.47
2023-09-18T04:36:25.885Z,100116.75
2023-09-18T04:38:53.473Z,100106.56
2023-09-18T04:41:20.964Z,100103.94
2023-09-18T04:43:48.283Z,100090.56
2023-09-18T04:46:16.738Z,100092.31
2023-09-18T04:48:44.055Z,100084.69
2023-09-18T04:51:11.634Z,100083.63
2023-09-18T04:53:39.020Z,100079.44
2023-09-18T04:56:06.258Z,100079.50
2023-09-18T04:58:33.555Z,100077.09
2023-09-18T05:01:05.952Z,100071.16
2023-09-18T05:03:35.952Z,100072.84
2023-09-18T05:06:05.225Z,100075.44
2023-09-18T05:08:32.725Z,100068.66
2023-09-18T05:11:00.555Z,100070.38
2023-09-18T05:13:27.780Z,100072.91
2023-09-18T05:15:55.069Z,100063.59
2023-09-18T05:18:22.820Z,100055.97
2023-09-18T05:20:50.135Z,100056.03
2023-09-18T05:23:19.166Z,100055.19
2023-09-18T05:25:46.576Z,100042.50
2023-09-18T05:28:13.782Z,100039.13
2023-09-18T05:30:41.867Z,100034.09
2023-09-18T05:33:10.165Z,100028.16
2023-09-18T05:35:45.538Z,100031.53
2023-09-18T05:38:15.141Z,100034.06
2023-09-18T05:40:43.038Z,100026.47
2023-09-18T05:43:11.133Z,100023.94
2023-09-18T05:45:39.186Z,100021.38
2023-09-18T05:48:06.790Z,100025.63
2023-09-18T05:50:37.102Z,100022.22
2023-09-18T05:53:05.319Z,100006.19
2023-09-18T05:55:34.966Z,100006.16
2023-09-18T05:58:05.272Z,100004.47
2023-09-18T06:00:32.735Z,99992.66
2023-09-18T06:03:00.954Z,99989.28
2023-09-18T06:05:28.465Z,99988.41
2023-09-18T06:07:55.713Z,99980.81
2023-09-18T06:10:22.940Z,99975.72
2023-09-18T06:12:50.136Z,99974.03
2023-09-18T06:15:17.367Z,99968.94
2023-09-18T06:17:44.982Z,99973.88
2023-09-18T06:20:17.108Z,99991.59
2023-09-18T06:22:44.832Z,100014.47
2023-09-18T06:25:12.208Z,100006.03
2023-09-18T06:27:39.824Z,99997.56
2023-09-18T06:30:08.138Z,100006.91
2023-09-18T06:32:35.700Z,100003.44
2023-09-18T06:35:03.116Z,100015.34
2023-09-18T06:37:30.425Z,100011.00
2023-09-18T06:40:00.440Z,100006.88
2023-09-18T06:42:27.794Z,99990.69
2023-09-18T06:44:55.575Z,99977.91
2023-09-18T06:47:25.247Z,99960.19
2023-09-18T06:49:52.880Z,99948.22
2023-09-18T06:52:20.260Z,99948.97
2023-09-18T06:54:47.440Z,99935.47
2023-09-18T06:57:14.693Z,99930.19
2023-09-18T06:59:41.994Z,99932.66
2023-09-18T07:02:09.310Z,99924.03
2023-09-18T07:04:36.590Z,99915.47
2023-09-18T07:07:04.245Z,99911.97
2023-09-18T07:09:31.756Z,99905.19
2023-09-18T07:11:59.122Z,99899.22
2023-09-18T07:14:26.363Z,99895.84
2023-09-18T07:16:53.608Z,99900.00
2023-09-18T07:19:20.853Z,99900.88
2023-09-18T07:21:48.096Z,99903.47
2023-09-18T07:24:18.154Z,99889.06
2023-09-18T07:26:47.989Z,99893.31
2023-09-18T07:29:16.366Z,99889.75
2023-09-18T07:31:45.003Z,99891.38
2023-09-18T07:34:14.522Z,99889.69
2023-09-18T07:36:41.925Z,99893.16
2023-09-18T07:39:09.316Z,99894.97
2023-09-18T07:41:36.677Z,99900.78
2023-09-18T07:44:04.600Z,99903.16
2023-09-18T07:46:31.802Z,99920.34
2023-09-18T07:48:58.976Z,99921.13
2023-09-18T07:51:26.148Z,99924.59
2023-09-18T07:53:53.391Z,99916.84
2023-09-18T07:56:20.607Z,99915.94
2023-09-18T07:58:48.107Z,99912.59
2023-09-18T08:01:17.580Z,99912.41
2023-09-18T08:03:45.023Z,99913.31
2023-09-18T08:06:12.878Z,99914.94
2023-09-18T08:08:40.754Z,99908.00
2023-09-18T08:11:12.086Z,99918.31
2023-09-18T08:13:39.283Z,99924.84
2023-09-18T08:16:08.386Z,99923.34
2023-09-18T08:18:36.660Z,99932.75
2023-09-18T08:21:05.718Z,99931.09
2023-09-18T08:23:33.705Z,99931.94
2023-09-18T08:26:01.463Z,99938.75
2023-09-18T08:28:28.818Z,99934.38
2023-09-18T08:30:56.222Z,99921.53
2023-09-18T08:33:23.485Z,99929.97
2023-09-18T08:35:50.943Z,99941.88
2023-09-18T08:38:18.342Z,99946.94
2023-09-18T08:40:45.764Z,99932.25
2023-09-18T08:43:17.375Z,99932.63
2023-09-18T08:45:53.465Z,99936.78
2023-09-18T08:48:22.729Z,99946.22
2023-09-18T08:50:52.507Z,99955.25
2023-09-18T08:53:19.953Z,99941.66
2023-09-18T08:55:47.149Z,99944.66
2023-09-18T08:58:15.576Z,99938.81
2023-09-18T09:00:42.881Z,99934.31
2023-09-18T09:03:11.024Z,99940.22
2023-09-18T09:05:38.600Z,99938.69
2023-09-18T09:08:05.867Z,99923.84
2023-09-18T09:10:33.050Z,99924.59
2023-09-18T09:13:01.719Z,99928.97
2023-09-18T09:15:50.778Z,99922.91
2023-09-18T09:18:18.560Z,99917.75
2023-09-18T09:21:00.602Z,99909.34
2023-09-18T09:23:31.157Z,99906.47
2023-09-18T09:26:17.577Z,99907.81
2023-09-18T09:28:46.751Z,99914.41
2023-09-18T09:31:33.913Z,99908.81
2023-09-18T09:34:03.467Z,99906.47
2023-09-18T09:36:31.631Z,99903.25
2023-09-18T09:39:00.013Z,99898.13
2023-09-18T09:41:31.076Z,99895.78
2023-09-18T09:43:59.720Z,99899.22
2023-09-18T09:46:27.554Z,99900.06
2023-09-18T09:49:06.496Z,99900.97
2023-09-18T09:51:35.596Z,99900.91
2023-09-18T09:54:03.470Z,99904.28
2023-09-18T09:56:52.035Z,99899.09
2023-09-18T09:59:20.700Z,99897.47
2023-09-18T10:01:51.330Z,99901.72
2023-09-18T10:04:21.143Z,99901.09
2023-09-18T10:07:07.002Z,99890.13
2023-09-18T10:09:40.085Z,99896.16
2023-09-18T10:12:12.950Z,99911.50
2023-09-18T10:14:59.778Z,99913.31
2023-09-18T10:17:31.135Z,99908.22
2023-09-18T10:20:10.394Z,99911.63
2023-09-18T10:22:47.659Z,99902.38
2023-09-18T10:25:21.657Z,99890.53
2023-09-18T10:27:51.026Z,99900.84
2023-09-18T10:30:19.397Z,99905.13
2023-09-18T10:32:47.591Z,99904.09
2023-09-18T10:35:16.344Z,99902.34
2023-09-18T10:37:46.891Z,99907.41
2023-09-18T10:40:14.553Z,99915.16
2023-09-18T10:42:43.244Z,99907.47
2023-09-18T10:45:14.187Z,99910.06
2023-09-18T10:47:46.669Z,99904.78
2023-09-18T10:50:25.180Z,99912.38
2023-09-18T10:52:52.530Z,99915.88
2023-09-18T10:55:22.348Z,99911.47
2023-09-18T10:57:55.719Z,99913.16
2023-09-18T11:00:28.802Z,99902.84
2023-09-18T11:03:28.794Z,99915.72
2023-09-18T11:06:13.934Z,99928.50
2023-09-18T11:08:51.016Z,99922.28
2023-09-18T11:11:21.972Z,99920.97
2023-09-18T11:13:55.811Z,99923.94
2023-09-18T11:16:29.104Z,99926.50
2023-09-18T11:18:59.854Z,99922.13
2023-09-18T11:21:33.473Z,99933.31
2023-09-18T11:24:17.037Z,99942.09
2023-09-18T11:26:48.980Z,99935.13
2023-09-18T11:29:23.218Z,99946.13
2023-09-18T11:31:57.782Z,99966.56
2023-09-18T11:34:32.422Z,99950.16
2023-09-18T11:36:59.993Z,99965.63
2023-09-18T11:39:41.722Z,99957.44
2023-09-18T11:42:17.022Z,99956.03
2023-09-18T11:44:47.899Z,99953.63
2023-09-18T11:47:20.466Z,99952.53
2023-09-18T11:49:59.499Z,99922.13
2023-09-18T11:52:30.454Z,99915.31
2023-09-18T11:55:00.877Z,99923.44
2023-09-18T11:57:29.717Z,99935.66
2023-09-18T12:00:01.310Z,99946.28
2023-09-18T12:02:39.424Z,99931.16
2023-09-18T12:05:19.498Z,99933.16
2023-09-18T12:07:48.170Z,99931.44
2023-09-18T12:10:19.825Z,99936.19
2023-09-18T12:12:48.321Z,99929.59
2023-09-18T12:15:21.085Z,99930.25
2023-09-18T12:17:48.639Z,99941.56
2023-09-18T12:20:22.544Z,99949.97
2023-09-18T12:22:52.013Z,99946.69
2023-09-18T12:25:19.928Z,99953.22
2023-09-18T12:27:52.224Z,99944.34
2023-09-18T12:30:22.074Z,99929.47
2023-09-18T12:32:52.313Z,99932.38
2023-09-18T12:35:20.148Z,99930.25
2023-09-18T12:37:47.524Z,99934.06
2023-09-18T12:40:33.989Z,99924.03
2023-09-18T12:43:02.683Z,99926.94
2023-09-18T12:45:31.353Z,99933.00
2023-09-18T12:48:00.701Z,99942.03
2023-09-18T12:50:29.065Z,99941.88
2023-09-18T12:53:16.363Z,99955.41
2023-09-18T12:55:44.329Z,99957.09
2023-09-18T12:58:14.717Z,99948.88
2023-09-18T13:00:50.914Z,99928.56
2023-09-18T13:03:19.522Z,99922.38
2023-09-18T13:05:48.335Z,99913.94
2023-09-18T13:08:15.782Z,99915.81
2023-09-18T13:10:56.318Z,99936.56
2023-09-18T13:13:24.896Z,99946.88
2023-09-18T13:15:55.878Z,99939.19
2023-09-18T13:18:24.760Z,99931.97
2023-09-18T13:20:54.748Z,99926.09
2023-09-18T13:23:29.353Z,99929.22
2023-09-18T13:26:01.989Z,99924.88
2023-09-18T13:28:31.858Z,99929.22
2023-09-18T13:31:00.732Z,99933.72
2023-09-18T13:33:28.165Z,99939.84
2023-09-18T13:35:56.997Z,99939.38
2023-09-18T13:38:27.192Z,99931.59
2023-09-18T13:40:58.192Z,99921.38
2023-09-18T13:43:25.714Z,99921.38
2023-09-18T13:45:52.938Z,99920.41
2023-09-18T13:48:20.486Z,99913.16
2023-09-18T13:50:53.105Z,99923.16
2023-09-18T13:53:20.277Z,99927.50
2023-09-18T13:55:47.409Z,99927.38
2023-09-18T13:58:14.780Z,99933.28
2023-09-18T14:00:44.604Z,99938.81
2023-09-18T14:03:16.320Z,99924.84
2023-09-18T14:05:43.696Z,99939.69
2023-09-18T14:08:11.022Z,99933.00
2023-09-18T14:10:40.812Z,99939.03
2023-09-18T14:13:08.641Z,99943.06
2023-09-18T14:15:35.920Z,99937.38
2023-09-18T14:18:04.592Z,99936.25
2023-09-18T14:20:31.919Z,99924.47
2023-09-18T14:22:59.154Z,99912.56
2023-09-18T14:25:26.454Z,99920.19
2023-09-18T14:27:53.834Z,99911.00
2023-09-18T14:30:21.343Z,99916.94
2023-09-18T14:32:49.357Z,99921.91
2023-09-18T14:35:16.709Z,99917.97
2023-09-18T14:37:43.954Z,99920.91
2023-09-18T14:40:13.249Z,99921.41
2023-09-18T14:42:41.022Z,99923.06
2023-09-18T14:45:09.944Z,99924.75
2023-09-18T14:47:37.933Z,99920.50
2023-09-18T14:50:06.870Z,99924.75
2023-09-18T14:52:34.115Z,99923.69
2023-09-18T14:55:02.758Z,99927.28
2023-09-18T14:57:30.129Z,99940.22
2023-09-18T14:59:57.347Z,99935.06
2023-09-18T15:02:30.072Z,99939.72
2023-09-18T15:04:57.397Z,99937.97
2023-09-18T15:07:24.722Z,99927.78
2023-09-18T15:09:51.981Z,99919.97
2023-09-18T15:12:19.198Z,99921.63
2023-09-18T15:14:46.528Z,99919.97
2023-09-18T15:17:14.260Z,99926.84
2023-09-18T15:19:44.554Z,99938.00
2023-09-18T15:22:11.834Z,99927.63
2023-09-18T15:24:39.105Z,99927.63
2023-09-18T15:27:06.764Z,99927.59
2023-09-18T15:29:35.746Z,99924.22
2023-09-18T15:32:06.471Z,99925.09
2023-09-18T15:34:34.491Z,99921.03
2023-09-18T15:37:05.036Z,99928.81
2023-09-18T15:39:35.338Z,99928.50
2023-09-18T15:42:02.557Z,99935.78
2023-09-18T15:44:29.791Z,99926.28
2023-09-18T15:46:57.024Z,99920.25
2023-09-18T15:49:24.262Z,99914.41
2023-09-18T15:51:51.454Z,99905.69
2023-09-18T15:54:19.091Z,99898.34
2023-09-18T15:56:46.611Z,99902.88
2023-09-18T15:59:13.804Z,99909.59
2023-09-18T16:01:41.246Z,99903.88
2023-09-18T16:04:08.983Z,99898.47
2023-09-18T16:06:36.771Z,99896.38
2023-09-18T16:09:07.287Z,99886.25
2023-09-18T16:11:34.636Z,99892.75
2023-09-18T16:14:01.901Z,99886.84
2023-09-18T16:16:29.530Z,99891.72
2023-09-18T16:18:58.402Z,99886.66
2023-09-18T16:21:25.883Z,99881.69
2023-09-18T16:23:54.074Z,99893.59
2023-09-18T16:26:22.126Z,99882.88
2023-09-18T16:28:49.352Z,99886.34
2023-09-18T16:31:16.594Z,99877.63
2023-09-18T16:33:44.426Z,99879.47
2023-09-18T16:36:11.693Z,99889.66
2023-09-18T16:38:42.701Z,99885.66
2023-09-18T16:41:11.298Z,99880.56
2023-09-18T16:43:39.246Z,99884.03
2023-09-18T16:46:07.032Z,99882.38
2023-09-18T16:48:35.557Z,99892.56
2023-09-18T16:51:22.467Z,99889.25
2023-09-18T16:53:50.068Z,99893.50
2023-09-18T16:56:17.897Z,99886.81
2023-09-18T16:58:47.358Z,99881.03
2023-09-18T17:01:14.909Z,99882.06
2023-09-18T17:03:43.551Z,99873.41
2023-09-18T17:06:12.110Z,99870.09
2023-09-18T17:08:40.673Z,99866.75
2023-09-18T17:11:08.418Z,99867.66
2023-09-18T17:13:35.614Z,99863.22
2023-09-18T17:16:04.200Z,99861.69
2023-09-18T17:18:31.873Z,99872.91
2023-09-18T17:20:59.176Z,99862.78
2023-09-18T17:23:26.863Z,99862.69
2023-09-18T17:25:54.057Z,99867.78
2023-09-18T17:28:21.232Z,99866.22
2023-09-18T17:30:51.560Z,99857.78
2023-09-18T17:33:19.271Z,99868.03
2023-09-18T17:35:48.362Z,99867.97
2023-09-18T17:38:15.767Z,99873.13
2023-09-18T17:40:43.075Z,99869.81
2023-09-18T17:43:10.278Z,99876.53
2023-09-18T17:45:37.577Z,99876.59
2023-09-18T17:48:07.960Z,99872.44
2023-09-18T17:50:35.818Z,99872.34
2023-09-18T17:53:03.241Z,99870.69
2023-09-18T17:55:30.579Z,99894.72
2023-09-18T17:57:59.247Z,99879.19
2023-09-18T18:00:26.649Z,99884.53
2023-09-18T18:03:07.247Z,99889.78
2023-09-18T18:05:52.961Z,99891.25
2023-09-18T18:08:20.844Z,99892.09
2023-09-18T18:10:48.394Z,99888.78
2023-09-18T18:13:16.430Z,99884.47
2023-09-18T18:15:44.311Z,99890.31
2023-09-18T18:18:13.828Z,99890.44
2023-09-18T18:20:46.026Z,99888.66
2023-09-18T18:23:13.958Z,99890.50
2023-09-18T18:25:41.593Z,99882.91
2023-09-18T18:28:10.173Z,99887.09
2023-09-18T18:30:37.421Z,99887.16
2023-09-18T18:33:05.792Z,99886.34
2023-09-18T18:35:33.129Z,99888.22
2023-09-18T18:38:00.601Z,99887.03
2023-09-18T18:40:28.557Z,99888.13
2023-09-18T18:42:55.754Z,99890.63
2023-09-18T18:45:27.064Z,99883.72
2023-09-18T18:47:54.934Z,99878.81
2023-09-18T18:50:22.662Z,99890.53
2023-09-18T18:52:50.201Z,99892.44
2023-09-18T18:55:17.942Z,99890.78
2023-09-18T18:57:45.187Z,99885.78
2023-09-18T19:00:13.084Z,99873.72
2023-09-18T19:02:41.334Z,99882.56
2023-09-18T19:05:10.816Z,99896.84
2023-09-18T19:07:38.258Z,99892.63
2023-09-18T19:10:06.382Z,99888.44
2023-09-18T19:12:41.459Z,99885.09
2023-09-18T19:15:10.831Z,99895.38
2023-09-18T19:17:38.195Z,99897.91
2023-09-18T19:20:06.538Z,99884.22
2023-09-18T19:22:35.468Z,99888.44
2023-09-18T19:25:05.563Z,99896.97
2023-09-18T19:27:37.877Z,99891.06
2023-09-18T19:30:10.237Z,99885.94
2023-09-18T19:32:40.174Z,99886.03
2023-09-18T19:35:08.528Z,99887.25
2023-09-18T19:37:36.001Z,99880.22
2023-09-18T19:40:03.833Z,99885.47
2023-09-18T19:42:31.263Z,99885.34
2023-09-18T19:44:58.489Z,99863.31
2023-09-18T19:47:25.707Z,99870.94
2023-09-18T19:49:52.901Z,99868.34
2023-09-18T19:52:20.125Z,99868.47
2023-09-18T19:54:47.431Z,99867.56
2023-09-18T19:57:15.203Z,99870.97
2023-09-18T19:59:42.456Z,99868.34
2023-09-18T20:02:10.144Z,99867.59
2023-09-18T20:04:37.329Z,99871.09
2023-09-18T20:07:07.421Z,99871.06
2023-09-18T20:09:34.712Z,99866.78
2023-09-18T20:12:01.926Z,99861.69
2023-09-18T20:14:32.208Z,99855.91
2023-09-18T20:17:00.597Z,99855.03
2023-09-18T20:19:28.144Z,99849.00
2023-09-18T20:21:58.406Z,99845.81
2023-09-18T20:24:25.884Z,99850.03
2023-09-18T20:26:53.086Z,99850.09
2023-09-18T20:29:20.333Z,99850.06
2023-09-18T20:31:47.653Z,99850.84
2023-09-18T20:34:14.872Z,99849.22
2023-09-18T20:36:43.105Z,99846.66
2023-09-18T20:39:10.651Z,99847.75
2023-09-18T20:41:38.035Z,99842.56
2023-09-18T20:44:05.676Z,99841.75
2023-09-18T20:46:33.115Z,99834.78
2023-09-18T20:51:32.836Z,99846.63
2023-09-18T20:54:01.626Z,99852.78
2023-09-18T20:56:29.875Z,99845.78
2023-09-18T20:59:04.569Z,99854.41
2023-09-18T21:01:32.527Z,99855.22
2023-09-18T21:03:59.843Z,99858.59
2023-09-18T21:06:27.806Z,99851.16
2023-09-18T21:08:55.209Z,99857.81
2023-09-18T21:11:36.678Z,99851.81
2023-09-18T21:14:05.464Z,99869.75
2023-09-18T21:16:32.861Z,99859.47
2023-09-18T21:19:00.281Z,99852.81
2023-09-18T21:21:27.822Z,99849.44
2023-09-18T21:23:55.256Z,99846.06
2023-09-18T21:26:22.839Z,99845.19
2023-09-18T21:28:50.788Z,99837.53
2023-09-18T21:31:21.889Z,99833.22
2023-09-18T21:33:53.066Z,99841.00
2023-09-18T21:36:24.813Z,99840.88
2023-09-18T21:38:53.009Z,99847.75
2023-09-18T21:41:21.587Z,99851.88
2023-09-18T21:43:49.074Z,99872.22
2023-09-18T21:46:16.701Z,99945.34
2023-09-18T21:48:45.155Z,99947.88
2023-09-18T21:51:17.388Z,99954.69
2023-09-18T21:53:48.154Z,99945.50
2023-09-18T21:56:15.644Z,99942.88
2023-09-18T21:58:42.915Z,99952.34
2023-09-18T22:01:10.304Z,99966.84
2023-09-18T22:03:41.013Z,99959.16
2023-09-18T22:06:11.920Z,99971.91
2023-09-18T22:08:39.754Z,99982.16
2023-09-18T22:11:08.101Z,99995.03
2023-09-18T22:13:38.768Z,99992.63
2023-09-18T22:16:06.575Z,100012.91
2023-09-18T22:18:34.170Z,100001.13
2023-09-18T22:23:37.545Z,100004.47
2023-09-18T22:26:04.851Z,100004.50
2023-09-18T22:28:32.149Z,100011.25
2023-09-18T22:30:59.412Z,100000.28
2023-09-18T22:33:28.159Z,99997.69
2023-09-18T22:35:56.127Z,100001.09
2023-09-18T22:39:05.045Z,100008.69
2023-09-18T22:41:32.414Z,100006.19
2023-09-18T22:44:56.122Z,99996.03
2023-09-18T22:48:20.834Z,99996.06
2023-09-18T22:51:44.895Z,100005.34
2023-09-18T22:54:12.032Z,99996.88
2023-09-18T22:56:39.175Z,100005.34
2023-09-18T22:59:06.680Z,99991.81
2023-09-18T23:01:34.123Z,99998.56
2023-09-18T23:04:01.671Z,100000.25
2023-09-18T23:06:29.278Z,99990.94
2023-09-18T23:08:56.601Z,99980.81
2023-09-18T23:11:25.153Z,99969.84
2023-09-18T23:13:53.001Z,99974.91
2023-09-18T23:16:26.186Z,99969.81
2023-09-18T23:18:53.575Z,99979.16
2023-09-18T23:21:21.859Z,99970.72
2023-09-18T23:23:49.236Z,99977.41
2023-09-18T23:26:16.676Z,99975.75
2023-09-18T23:28:46.209Z,99982.53
2023-09-18T23:31:14.962Z,99979.97
2023-09-18T23:33:46.372Z,99988.44
2023-09-18T23:36:13.674Z,99990.84
2023-09-18T23:38:42.054Z,99972.38
2023-09-18T23:41:10.069Z,99972.38
2023-09-18T23:43:37.652Z,99974.06
2023-09-18T23:46:09.191Z,99973.97
2023-09-18T23:48:36.753Z,99978.22
2023-09-18T23:51:05.874Z,99979.97
2023-09-18T23:53:34.019Z,99977.47
2023-09-18T23:56:04.024Z,99990.88
2023-09-18T23:58:31.328Z,99994.22
